Time;durP1;ratioP1;P1;durP2;ratioP2;P2;SDS_P1;SDS_P2;PMS_P1;PMS_P2;Temp;Humidity;BMP_temperature;BMP_pressure;BME280_temperature;BME280_humidity;BME280_pressure;Samples;Min_cycle;Max_cycle;Signal;HPM_P1;HPM_P2
2022/03/18 00:00:25;;;;;;;28.63;13.00;;;;;;;-7.21;68.51;102638.59;1751089;81;21223;-67
2022/03/18 00:02:48;;;;;;;30.73;12.90;;;;;;;-7.22;68.86;102638.10;1749894;81;21016;-68
2022/03/18 00:05:16;;;;;;;26.53;11.87;;;;;;;-7.26;68.64;102636.08;1750936;82;21723;-68
2022/03/18 00:07:45;;;;;;;28.03;13.07;;;;;;;-7.31;68.68;102642.53;1751230;81;21032;-69
2022/03/18 00:10:15;;;;;;;35.47;14.63;;;;;;;-7.32;68.81;102648.41;1751296;81;21087;-68
2022/03/18 00:12:42;;;;;;;25.88;12.78;;;;;;;-7.33;69.11;102649.20;1751130;81;21135;-68
2022/03/18 00:15:11;;;;;;;25.87;12.17;;;;;;;-7.34;68.96;102648.67;1750838;82;21021;-68
2022/03/18 00:17:37;;;;;;;31.20;12.67;;;;;;;-7.36;69.19;102645.11;1750806;82;21109;-68
2022/03/18 00:20:09;;;;;;;30.90;12.90;;;;;;;-7.39;69.47;102645.38;1751249;81;21537;-68
2022/03/18 00:22:36;;;;;;;23.20;11.07;;;;;;;-7.42;69.59;102638.75;1750965;81;21127;-67
2022/03/18 00:25:06;;;;;;;28.20;11.57;;;;;;;-7.46;69.50;102643.13;1751081;82;21254;-67
2022/03/18 00:27:35;;;;;;;25.53;10.67;;;;;;;-7.49;69.73;102648.02;1773513;80;21046;-70
2022/03/18 00:30:04;;;;;;;22.15;10.63;;;;;;;-7.53;69.84;102646.00;1782087;80;21017;-67
2022/03/18 00:32:31;;;;;;;22.00;10.20;;;;;;;-7.58;70.19;102649.88;1781893;80;21032;-69
2022/03/18 00:34:59;;;;;;;26.87;11.53;;;;;;;-7.62;70.48;102656.41;1781937;80;20973;-69
2022/03/18 00:37:25;;;;;;;24.73;11.90;;;;;;;-7.67;70.78;102656.84;1781780;80;21217;-67
2022/03/18 00:39:53;;;;;;;19.83;10.03;;;;;;;-7.70;71.12;102661.74;1782081;80;21521;-68
2022/03/18 00:42:20;;;;;;;23.80;12.07;;;;;;;-7.73;71.31;102661.48;1781795;80;21728;-67
2022/03/18 00:44:47;;;;;;;32.13;11.93;;;;;;;-7.77;71.74;102659.48;1781718;80;21006;-67
2022/03/18 00:52:44;;;;;;;26.70;12.77;;;;;;;-7.86;72.08;102663.09;1781719;80;21020;-68
2022/03/18 00:55:11;;;;;;;33.20;13.60;;;;;;;-7.93;72.21;102663.39;1782023;80;21080;-66
2022/03/18 00:57:38;;;;;;;28.50;12.73;;;;;;;-7.88;71.93;102671.03;1781818;80;21067;-67
2022/03/18 01:00:07;;;;;;;35.93;14.33;;;;;;;-7.93;71.62;102668.52;1781822;80;21084;-68
2022/03/18 01:02:34;;;;;;;32.03;15.13;;;;;;;-7.94;71.56;102673.50;1781689;80;21876;-68
2022/03/18 01:05:01;;;;;;;26.07;12.80;;;;;;;-7.95;71.62;102671.73;1781899;80;21040;-68
2022/03/18 01:07:28;;;;;;;29.00;14.20;;;;;;;-7.97;71.81;102674.16;1781829;80;21069;-68
2022/03/18 01:09:55;;;;;;;27.47;12.07;;;;;;;-7.98;71.68;102674.02;1781982;80;21008;-66
2022/03/18 01:12:22;;;;;;;27.83;12.50;;;;;;;-8.02;71.41;102674.19;1782205;80;21025;-66
2022/03/18 01:14:50;;;;;;;28.13;12.80;;;;;;;-8.05;71.65;102676.12;1781954;80;21232;-67
2022/03/18 01:17:18;;;;;;;28.93;13.40;;;;;;;-8.06;71.96;102676.88;1781826;80;21021;-67
2022/03/18 01:19:44;;;;;;;30.93;13.77;;;;;;;-8.05;72.09;102679.03;1781887;80;21030;-66
2022/03/18 01:22:11;;;;;;;26.03;13.57;;;;;;;-8.04;72.04;102679.56;1781761;80;21076;-67
2022/03/18 01:24:38;;;;;;;21.20;10.87;;;;;;;-8.07;72.15;102681.88;1781929;80;21493;-67
2022/03/18 01:27:06;;;;;;;35.13;12.57;;;;;;;-8.09;72.39;102684.70;1781686;80;21159;-67
2022/03/18 01:29:32;;;;;;;24.23;11.97;;;;;;;-8.09;72.60;102684.70;1781607;80;21025;-67
2022/03/18 01:32:00;;;;;;;25.87;12.57;;;;;;;-8.12;72.55;102683.16;1781829;80;21077;-69
2022/03/18 01:34:26;;;;;;;28.50;12.83;;;;;;;-8.15;72.67;102691.48;1781717;80;21092;-67
2022/03/18 01:36:53;;;;;;;31.97;15.33;;;;;;;-8.15;72.92;102696.99;1781724;80;21036;-67
2022/03/18 01:39:22;;;;;;;36.80;15.93;;;;;;;-8.16;72.95;102692.66;1781909;80;21533;-68
2022/03/18 01:41:48;;;;;;;26.83;13.00;;;;;;;-8.16;72.87;102699.05;1781738;80;21643;-69
2022/03/18 01:44:15;;;;;;;32.57;15.37;;;;;;;-8.18;72.63;102692.92;1781841;80;21545;-67
2022/03/18 01:46:41;;;;;;;30.87;13.93;;;;;;;-8.19;72.78;102691.12;1781842;80;21497;-69
2022/03/18 01:49:08;;;;;;;27.47;13.40;;;;;;;-8.19;72.86;102688.56;1774858;80;21072;-67
2022/03/18 01:51:36;;;;;;;29.03;13.77;;;;;;;-8.22;73.04;102688.82;1750838;82;21241;-68
2022/03/18 01:56:49;;;;;;;24.40;13.27;;;;;;;-8.23;73.06;102696.00;1726515;82;21551;-68
2022/03/18 01:59:16;;;;;;;29.57;12.80;;;;;;;-8.25;73.60;102696.65;1750978;82;20973;-67
2022/03/18 02:01:43;;;;;;;29.10;13.67;;;;;;;-8.28;73.68;102697.66;1751099;81;21548;-68
2022/03/18 02:04:10;;;;;;;29.13;13.57;;;;;;;-8.33;73.64;102690.90;1751041;81;21810;-67
2022/03/18 02:06:39;;;;;;;27.73;12.47;;;;;;;-8.37;73.70;102697.84;1750848;82;21041;-67
2022/03/18 02:09:07;;;;;;;29.10;13.33;;;;;;;-8.38;74.01;102700.26;1750962;81;21017;-68
2022/03/18 02:11:35;;;;;;;23.00;11.97;;;;;;;-8.39;74.23;102703.20;1750807;81;21144;-66
2022/03/18 02:14:03;;;;;;;22.97;11.47;;;;;;;-8.41;74.19;102703.50;1751174;81;21103;-67
2022/03/18 02:16:31;;;;;;;31.90;11.87;;;;;;;-8.42;74.05;102708.08;1750882;81;21068;-68
2022/03/18 02:18:59;;;;;;;24.40;10.90;;;;;;;-8.47;73.84;102702.98;1750680;81;21338;-68
2022/03/18 02:21:30;;;;;;;24.20;11.67;;;;;;;-8.50;73.76;102711.70;1750716;82;21079;-67
2022/03/18 02:23:57;;;;;;;;;;;;;;;-8.52;73.79;102710.67;1753533;81;21083;-68
2022/03/18 02:26:24;;;;;;;24.33;11.30;;;;;;;-8.54;73.91;102718.59;1751087;81;20460;-67
2022/03/18 02:28:51;;;;;;;24.07;11.50;;;;;;;-8.60;74.15;102718.08;1750895;82;21890;-67
2022/03/18 02:31:19;;;;;;;26.23;11.83;;;;;;;-8.63;74.23;102717.84;1751068;81;21485;-67
2022/03/18 02:33:47;;;;;;;23.37;11.27;;;;;;;-8.66;74.31;102723.60;1750808;81;21005;-67
2022/03/18 02:36:13;;;;;;;25.33;10.83;;;;;;;-8.72;74.47;102726.92;1750960;82;21044;-67
2022/03/18 02:38:41;;;;;;;24.80;11.27;;;;;;;-8.81;74.76;102729.63;1750787;82;21029;-67
2022/03/18 02:41:11;;;;;;;22.73;10.37;;;;;;;-8.86;74.91;102729.61;1750931;81;21226;-67
2022/03/18 02:43:39;;;;;;;21.30;10.73;;;;;;;-8.87;74.98;102740.21;1750934;82;21505;-68
2022/03/18 02:46:07;;;;;;;20.23;10.33;;;;;;;-8.88;75.13;102736.25;1751285;81;21084;-67
2022/03/18 02:48:34;;;;;;;23.17;9.73;;;;;;;-8.89;75.09;102737.02;1750920;81;21040;-67
2022/03/18 02:51:00;;;;;;;22.90;10.50;;;;;;;-8.92;75.24;102730.39;1781902;80;21080;-68
2022/03/18 02:53:27;;;;;;;21.07;9.80;;;;;;;-8.91;75.34;102738.55;1781926;80;21837;-67
2022/03/18 02:55:54;;;;;;;22.83;10.40;;;;;;;-8.93;75.26;102747.74;1781750;80;20977;-67
2022/03/18 02:58:22;;;;;;;23.67;9.70;;;;;;;-8.94;75.26;102748.52;1781722;80;21064;-67
2022/03/18 03:00:48;;;;;;;19.77;9.60;;;;;;;-8.96;75.23;102744.55;1782106;80;21075;-67
2022/03/18 03:03:15;;;;;;;21.70;9.83;;;;;;;-8.97;75.34;102745.34;1777036;80;21080;-67
2022/03/18 03:08:27;;;;;;;20.80;9.03;;;;;;;-8.95;75.21;102754.02;1773687;80;21013;-67
2022/03/18 03:10:54;;;;;;;19.47;9.20;;;;;;;-8.95;75.06;102760.41;1773554;80;21525;-66
2022/03/18 03:13:23;;;;;;;17.03;8.33;;;;;;;-8.93;75.21;102761.40;1773661;80;21001;-67
2022/03/18 03:15:50;;;;;;;25.80;9.20;;;;;;;-8.92;75.03;102755.94;1773647;80;21077;-67
2022/03/18 03:18:17;;;;;;;20.37;9.47;;;;;;;-8.93;75.11;102765.23;1773815;80;21875;-67
2022/03/18 03:20:43;;;;;;;21.20;8.93;;;;;;;-8.93;75.04;102765.62;1773569;80;21017;-67
2022/03/18 03:23:10;;;;;;;17.80;8.47;;;;;;;-8.94;75.07;102767.67;1773803;80;21001;-67
2022/03/18 03:25:36;;;;;;;20.27;8.30;;;;;;;-8.96;75.10;102770.09;1773695;80;21057;-66
2022/03/18 03:28:04;;;;;;;19.37;9.03;;;;;;;-8.97;75.17;102775.05;1773739;80;21474;-67
2022/03/18 03:30:31;;;;;;;16.50;8.40;;;;;;;-8.98;75.21;102768.17;1773683;80;21300;-68
2022/03/18 03:32:58;;;;;;;16.40;8.10;;;;;;;-8.98;75.24;102769.45;1773487;80;21002;-68
2022/03/18 03:35:26;;;;;;;20.40;8.70;;;;;;;-8.99;75.18;102766.41;1773417;80;21069;-66
2022/03/18 03:37:53;;;;;;;20.30;8.90;;;;;;;-9.00;75.18;102776.09;1773533;80;20997;-66
2022/03/18 03:40:20;;;;;;;17.43;8.67;;;;;;;-9.02;75.20;102772.50;1773649;80;20985;-66
2022/03/18 03:42:46;;;;;;;18.53;9.20;;;;;;;-9.03;75.30;102775.84;1773421;80;21292;-68
2022/03/18 03:45:14;;;;;;;15.13;8.47;;;;;;;-9.04;75.30;102775.31;1773612;80;21009;-67
2022/03/18 03:47:40;;;;;;;16.20;8.30;;;;;;;-9.02;75.34;102781.44;1773431;80;20990;-66
2022/03/18 03:50:09;;;;;;;15.70;8.50;;;;;;;-9.03;75.40;102788.61;1753904;80;21084;-68
2022/03/18 03:52:37;;;;;;;17.70;8.88;;;;;;;-9.01;75.51;102789.63;1742930;82;21017;-66
2022/03/18 03:55:05;;;;;;;21.37;9.87;;;;;;;-9.03;75.41;102788.22;1742867;82;21145;-66
2022/03/18 03:57:32;;;;;;;15.20;8.20;;;;;;;-9.02;75.43;102794.21;1742686;82;20981;-68
2022/03/18 03:59:59;;;;;;;14.43;8.17;;;;;;;-9.02;75.42;102796.77;1743065;82;21107;-66
2022/03/18 04:02:29;;;;;;;21.10;8.50;;;;;;;-9.03;75.55;102803.92;1743788;82;21034;-66
2022/03/18 04:04:57;;;;;;;18.57;8.18;;;;;;;-9.04;75.54;102805.59;1751022;82;21103;-68
2022/03/18 04:07:27;;;;;;;16.60;8.13;;;;;;;-9.02;75.58;102801.88;1750904;81;21242;-66
2022/03/18 04:09:54;;;;;;;17.63;8.47;;;;;;;-8.99;75.53;102804.70;1750940;82;21028;-67
2022/03/18 04:12:22;;;;;;;17.90;8.37;;;;;;;-8.97;75.47;102807.89;1750938;82;21080;-68
2022/03/18 04:14:51;;;;;;;17.23;8.93;;;;;;;-8.97;75.34;102810.81;1750970;81;21052;-68
2022/03/18 04:17:18;;;;;;;20.27;9.03;;;;;;;-8.96;75.27;102821.55;1750993;81;21056;-67
2022/03/18 04:19:45;;;;;;;19.57;8.87;;;;;;;-8.93;75.39;102826.91;1750680;82;21138;-67
2022/03/18 04:22:11;;;;;;;18.87;9.30;;;;;;;-8.91;75.62;102827.55;1750687;82;21013;-68
2022/03/18 04:24:38;;;;;;;21.97;9.90;;;;;;;-8.87;75.58;102822.33;1750757;81;21032;-67
2022/03/18 04:27:05;;;;;;;15.90;8.80;;;;;;;-8.83;75.48;102828.22;1750897;81;21049;-67
2022/03/18 04:29:32;;;;;;;19.90;9.70;;;;;;;-8.79;75.50;102818.75;1751001;82;21064;-68
2022/03/18 04:31:58;;;;;;;22.10;9.80;;;;;;;-8.73;75.67;102829.48;1750905;81;21251;-67
2022/03/18 04:34:25;;;;;;;22.57;9.83;;;;;;;-8.68;75.74;102829.48;1750866;81;21068;-67
2022/03/18 04:36:52;;;;;;;27.73;11.53;;;;;;;-8.46;76.03;102831.30;1750833;81;21032;-66
2022/03/18 04:39:19;;;;;;;22.70;9.70;;;;;;;-7.95;76.38;102828.63;1750911;81;21024;-67
2022/03/18 04:41:45;;;;;;;24.83;10.83;;;;;;;-7.34;75.74;102830.45;1750667;81;21087;-68
2022/03/18 04:44:12;;;;;;;24.77;10.70;;;;;;;-6.67;74.61;102826.73;1750793;81;21133;-68
2022/03/18 04:46:38;;;;;;;21.63;10.97;;;;;;;-5.96;72.01;102831.97;1750553;81;20979;-68
2022/03/18 04:49:06;;;;;;;22.80;10.67;;;;;;;-5.51;69.58;102827.95;1757409;80;21021;-68
2022/03/18 04:51:33;;;;;;;27.93;12.20;;;;;;;-5.48;67.54;102828.16;1781938;80;21033;-68
2022/03/18 04:54:00;;;;;;;28.17;12.87;;;;;;;-5.54;67.10;102834.17;1781811;80;21028;-68
2022/03/18 04:59:12;;;;;;;28.87;14.50;;;;;;;-5.27;66.45;102837.81;1781948;80;21033;-69
2022/03/18 05:01:39;;;;;;;27.13;12.80;;;;;;;-4.62;65.46;102844.85;1781543;80;21067;-67
2022/03/18 05:04:05;;;;;;;27.50;12.78;;;;;;;-3.94;63.68;102841.62;1776070;80;21053;-68
2022/03/18 05:06:33;;;;;;;25.72;12.28;;;;;;;-3.24;62.13;102841.41;1773548;80;21481;-68
2022/03/18 05:09:02;;;;;;;23.98;12.95;;;;;;;-2.54;59.96;102835.78;1774051;80;21201;-69
2022/03/18 05:11:29;;;;;;;31.50;13.32;;;;;;;-1.88;57.88;102836.18;1773489;80;21563;-69
2022/03/18 05:13:57;;;;;;;31.12;13.93;;;;;;;-1.31;55.48;102840.25;1773713;80;21517;-68
2022/03/18 05:16:25;;;;;;;31.82;13.25;;;;;;;-0.75;54.27;102832.05;1773468;80;21025;-69
2022/03/18 05:18:53;;;;;;;23.65;12.20;;;;;;;-0.25;51.79;102838.95;1773354;80;21529;-68
2022/03/18 05:21:22;;;;;;;29.02;13.50;;;;;;;0.62;46.42;102844.92;1773453;80;21163;-70
2022/03/18 05:23:50;;;;;;;;;;;;;;;0.62;46.42;102844.92;1776239;80;20978;-69
2022/03/18 05:26:16;;;;;;;25.37;11.70;;;;;;;0.92;46.64;102846.26;1773794;80;20485;-68
2022/03/18 05:28:43;;;;;;;22.15;11.75;;;;;;;1.19;45.60;102847.52;1773793;80;21536;-69
2022/03/18 05:31:09;;;;;;;24.10;11.60;;;;;;;1.51;43.90;102841.98;1773678;80;21542;-69
2022/03/18 05:33:36;;;;;;;24.65;13.13;;;;;;;1.74;43.87;102841.26;1773443;80;21268;-67
2022/03/18 05:36:05;;;;;;;23.85;12.73;;;;;;;2.13;43.42;102848.95;1773507;80;21029;-68
2022/03/18 05:38:31;;;;;;;26.25;12.43;;;;;;;2.60;42.18;102854.28;1773439;80;21110;-69
2022/03/18 05:40:58;;;;;;;23.22;11.48;;;;;;;2.92;41.26;102852.92;1773764;80;21121;-69
2022/03/18 05:43:24;;;;;;;22.95;11.90;;;;;;;3.33;40.64;102854.88;1773664;80;21477;-69
2022/03/18 05:45:51;;;;;;;23.55;12.15;;;;;;;3.69;39.67;102855.73;1773540;80;21222;-66
2022/03/18 05:48:18;;;;;;;25.80;12.15;;;;;;;3.94;37.53;102860.95;1773505;80;21009;-71
2022/03/18 05:50:45;;;;;;;18.87;11.15;;;;;;;3.90;36.86;102872.53;1745931;80;21048;-67
2022/03/18 05:53:12;;;;;;;20.48;10.95;;;;;;;3.74;36.34;102872.41;1742406;82;21648;-68
2022/03/18 05:58:24;;;;;;;20.17;11.35;;;;;;;4.09;37.00;102879.25;1773638;80;21616;-68
2022/03/18 06:00:51;;;;;;;19.65;9.68;;;;;;;4.35;36.05;102875.80;1773467;80;21006;-67
2022/03/18 06:03:19;;;;;;;21.62;11.03;;;;;;;4.50;34.75;102878.42;1754931;80;21079;-69
2022/03/18 06:05:46;;;;;;;17.67;9.88;;;;;;;4.37;35.00;102877.13;1787720;79;21083;-67
2022/03/18 06:13:42;;;;;;;18.50;10.18;;;;;;;4.49;35.05;102879.27;1787768;80;21036;-69
2022/03/18 06:16:11;;;;;;;18.17;10.48;;;;;;;4.49;34.29;102882.77;1787798;79;21084;-68
2022/03/18 06:18:38;;;;;;;18.17;9.63;;;;;;;4.38;34.44;102886.32;1787563;80;21056;-67
2022/03/18 06:21:08;;;;;;;18.30;9.78;;;;;;;4.36;34.32;102884.50;1787909;80;21049;-67
2022/03/18 06:23:35;;;;;;;18.42;9.83;;;;;;;4.36;35.10;102880.16;1787290;79;21254;-67
2022/03/18 06:26:02;;;;;;;15.25;9.30;;;;;;;4.64;34.81;102882.34;1787626;80;21029;-67
2022/03/18 06:28:30;;;;;;;16.62;8.53;;;;;;;5.07;34.70;102885.41;1787638;80;21001;-68
2022/03/18 06:30:57;;;;;;;14.28;8.00;;;;;;;5.50;33.54;102878.38;1787660;80;21017;-69
2022/03/18 06:33:24;;;;;;;15.65;9.48;;;;;;;5.61;33.25;102878.27;1787808;79;21056;-70
2022/03/18 06:35:50;;;;;;;15.63;8.63;;;;;;;5.71;33.11;102884.62;1787719;80;21226;-69
2022/03/18 06:38:17;;;;;;;18.50;8.00;;;;;;;5.88;33.13;102882.02;1787634;80;21056;-68
2022/03/18 06:40:44;;;;;;;16.35;8.23;;;;;;;6.27;31.49;102881.73;1787852;80;21044;-68
2022/03/18 06:43:12;;;;;;;23.95;9.13;;;;;;;6.09;31.11;102883.45;1787876;80;21478;-68
2022/03/18 06:45:40;;;;;;;20.50;9.23;;;;;;;5.91;31.37;102890.36;1787934;80;21028;-68
2022/03/18 06:48:08;;;;;;;21.73;10.60;;;;;;;5.65;31.62;102886.63;1787553;79;21200;-69
2022/03/18 06:50:35;;;;;;;18.70;10.40;;;;;;;5.44;32.11;102896.50;1787528;80;21584;-68
2022/03/18 06:53:02;;;;;;;22.48;10.60;;;;;;;5.36;32.41;102896.69;1787694;80;21086;-68
2022/03/18 06:55:29;;;;;;;19.40;9.95;;;;;;;5.46;32.02;102889.16;1787696;79;21092;-69
2022/03/18 06:57:56;;;;;;;23.75;10.55;;;;;;;5.64;32.38;102887.48;1787911;79;21127;-67
2022/03/18 07:00:23;;;;;;;19.00;9.95;;;;;;;5.63;31.87;102887.00;1787942;79;21762;-67
2022/03/18 07:02:50;;;;;;;22.22;9.78;;;;;;;5.68;31.93;102888.05;1787541;79;21532;-67
2022/03/18 07:05:17;;;;;;;22.48;10.28;;;;;;;5.72;31.88;102890.73;1775283;80;21002;-68
2022/03/18 07:07:43;;;;;;;17.23;9.73;;;;;;;5.90;32.38;102892.53;1773480;80;21064;-69
2022/03/18 07:10:12;;;;;;;17.82;9.45;;;;;;;6.24;31.18;102893.01;1773703;80;21013;-67
2022/03/18 07:12:40;;;;;;;19.32;9.28;;;;;;;6.47;31.56;102897.50;1773651;80;22189;-67
2022/03/18 07:15:08;;;;;;;16.07;8.13;;;;;;;6.96;31.03;102894.25;1773851;80;21001;-68
2022/03/18 07:20:22;;;;;;;19.35;8.55;;;;;;;7.63;28.83;102896.07;1773892;80;21021;-68
2022/03/18 07:23:15;;;;;;;25.85;9.75;;;;;;;7.39;28.79;102899.11;1773582;80;21159;-67
2022/03/18 07:25:44;;;;;;;18.20;8.58;;;;;;;7.18;29.59;102902.13;1773507;80;21978;-69
2022/03/18 07:28:13;;;;;;;17.52;8.00;;;;;;;7.48;29.96;102903.22;1773533;80;21033;-69
2022/03/18 07:30:42;;;;;;;15.10;7.85;;;;;;;7.93;29.21;102900.56;1776360;80;22237;-68
2022/03/18 07:33:09;;;;;;;14.87;7.55;;;;;;;8.02;28.62;102901.17;1776957;80;20966;-67
2022/03/18 07:35:37;;;;;;;12.23;7.28;;;;;;;8.14;28.35;102897.47;1777234;80;21044;-67
2022/03/18 07:38:09;;;;;;;16.20;7.00;;;;;;;8.30;28.56;102897.27;1777000;80;23142;-67
2022/03/18 07:40:33;;;;;;;14.98;7.72;;;;;;;8.57;28.00;102910.00;1776662;80;20994;-68
2022/03/18 07:43:00;;;;;;;14.00;7.47;;;;;;;8.39;27.41;102903.11;1773761;80;21052;-68
2022/03/18 07:45:33;;;;;;;15.48;7.65;;;;;;;8.23;27.93;102905.91;1773769;80;21009;-69
2022/03/18 07:48:04;;;;;;;16.70;6.95;;;;;;;8.39;28.29;102912.30;1773830;80;21474;-69
2022/03/18 07:50:32;;;;;;;12.33;7.62;;;;;;;8.60;27.48;102911.80;1749737;80;21084;-68
2022/03/18 07:53:02;;;;;;;16.17;8.68;;;;;;;8.45;27.04;102911.57;1742796;82;20969;-68
2022/03/18 07:55:31;;;;;;;15.45;9.13;;;;;;;8.16;27.27;102915.41;1743268;82;21013;-71
2022/03/18 07:57:58;;;;;;;19.60;10.20;;;;;;;8.13;27.86;102910.12;1742941;82;21088;-68
2022/03/18 08:00:26;;;;;;;17.65;9.70;;;;;;;8.24;27.59;102912.06;1743189;82;21045;-68
2022/03/18 08:02:55;;;;;;;16.45;10.18;;;;;;;8.40;27.66;102915.00;1742955;82;21080;-67
2022/03/18 08:05:22;;;;;;;17.42;8.28;;;;;;;8.49;27.27;102918.21;1742834;81;21029;-69
2022/03/18 08:07:50;;;;;;;13.88;8.50;;;;;;;8.61;27.35;102917.08;1768558;80;20998;-70
2022/03/18 08:10:19;;;;;;;21.23;10.20;;;;;;;8.76;26.90;102919.48;1773702;80;21565;-69
2022/03/18 08:12:46;;;;;;;21.77;9.85;;;;;;;8.43;27.35;102914.59;1773970;80;21044;-67
2022/03/18 08:15:15;;;;;;;16.42;8.90;;;;;;;8.35;27.54;102917.04;1773765;80;21899;-68
2022/03/18 08:17:43;;;;;;;15.03;8.57;;;;;;;8.68;27.61;102914.56;1773836;80;21215;-70
2022/03/18 08:20:14;;;;;;;19.25;8.43;;;;;;;9.17;27.11;102912.62;1773614;80;21061;-71
2022/03/18 08:22:41;;;;;;;16.37;9.20;;;;;;;9.44;26.44;102915.60;1773598;80;21057;-69
2022/03/18 08:25:09;;;;;;;12.95;6.97;;;;;;;9.61;25.94;102917.55;1773367;80;21029;-70
2022/03/18 08:27:37;;;;;;;14.85;8.93;;;;;;;9.44;25.89;102925.24;1773781;80;21876;-70
2022/03/18 08:30:07;;;;;;;14.65;8.13;;;;;;;9.25;26.05;102918.88;1752459;80;21049;-68
2022/03/18 08:32:36;;;;;;;14.07;7.45;;;;;;;9.31;26.58;102907.54;1773886;80;21076;-69
2022/03/18 08:35:06;;;;;;;16.15;9.28;;;;;;;9.66;26.17;102907.95;1773697;80;21006;-68
2022/03/18 08:40:20;;;;;;;9.55;6.72;;;;;;;10.25;24.97;102912.93;1773743;80;21193;-69
2022/03/18 08:42:48;;;;;;;44.13;33.28;;;;;;;10.28;24.42;102913.01;1773592;80;21100;-69
2022/03/18 08:45:15;;;;;;;92.12;63.05;;;;;;;10.16;23.77;102910.21;1773654;80;21041;-67
2022/03/18 08:47:43;;;;;;;18.70;11.93;;;;;;;9.96;23.84;102917.03;1773493;80;21002;-68
2022/03/18 08:50:12;;;;;;;72.15;42.90;;;;;;;9.84;23.75;102916.04;1773601;80;21586;-69
2022/03/18 08:52:39;;;;;;;9.10;5.58;;;;;;;9.67;23.55;102920.25;1773773;80;21427;-69
2022/03/18 08:55:09;;;;;;;10.58;5.45;;;;;;;9.28;23.78;102916.27;1773552;80;21057;-69
2022/03/18 08:57:37;;;;;;;11.38;7.05;;;;;;;8.75;24.46;102921.67;1773863;80;21065;-69
2022/03/18 09:00:11;;;;;;;10.40;5.87;;;;;;;8.50;25.20;102914.71;1752245;80;21122;-68
2022/03/18 09:02:41;;;;;;;12.18;5.87;;;;;;;8.59;25.42;102921.42;1773364;80;21584;-68
2022/03/18 09:05:09;;;;;;;81.80;48.13;;;;;;;8.67;25.17;102912.77;1773482;80;21240;-69
2022/03/18 09:07:39;;;;;;;25.77;10.43;;;;;;;8.68;24.86;102915.88;1773163;80;21278;-69
2022/03/18 09:10:07;;;;;;;11.93;7.72;;;;;;;8.56;25.23;102902.13;1773911;80;21080;-68
2022/03/18 09:12:34;;;;;;;11.10;5.35;;;;;;;8.54;25.44;102909.97;1773607;80;21033;-68
2022/03/18 09:15:05;;;;;;;13.25;6.70;;;;;;;8.88;25.44;102910.48;1751971;80;21120;-69
2022/03/18 09:19:16;;;;;;;13.93;7.05;;;;;;;9.56;24.42;102906.09;1796675;79;28635;-69
2022/03/18 09:21:45;;;;;;;;;;;;;;;9.58;24.47;102903.92;1758963;80;21030;-68
2022/03/18 09:24:12;;;;;;;16.73;7.08;;;;;;;9.56;24.07;102902.14;1737681;81;21248;-69
2022/03/18 09:26:40;;;;;;;25.77;13.22;;;;;;;9.21;24.29;102903.92;1756357;81;20965;-68
2022/03/18 09:29:09;;;;;;;11.00;5.90;;;;;;;9.07;24.41;102909.43;1756569;81;21616;-68
2022/03/18 09:31:36;;;;;;;13.75;5.78;;;;;;;9.21;24.88;102906.55;1756115;81;21045;-68
2022/03/18 09:34:06;;;;;;;16.45;6.50;;;;;;;9.54;24.34;102906.50;1756368;81;21017;-69
2022/03/18 09:36:37;;;;;;;30.37;9.93;;;;;;;9.82;23.53;102897.16;1762188;81;21309;-69
2022/03/18 09:39:05;;;;;;;15.40;6.47;;;;;;;10.04;23.14;102887.29;1756380;81;21075;-68
2022/03/18 09:41:34;;;;;;;7.28;3.80;;;;;;;9.76;22.75;102904.56;1694403;83;21028;-68
2022/03/18 09:44:01;;;;;;;7.70;3.98;;;;;;;9.42;23.00;102901.55;1722742;83;21040;-69
2022/03/18 09:46:29;;;;;;;12.18;4.72;;;;;;;9.22;22.97;102897.78;1722730;83;21056;-69
2022/03/18 09:48:56;;;;;;;11.93;5.72;;;;;;;9.20;23.87;102897.78;1721649;83;21240;-68
2022/03/18 09:51:25;;;;;;;21.55;8.40;;;;;;;9.76;23.44;102894.04;1672354;83;21044;-69
2022/03/18 09:53:52;;;;;;;66.62;37.25;;;;;;;9.87;22.91;102890.21;1720265;83;21059;-70
2022/03/18 09:56:19;;;;;;;10.30;6.03;;;;;;;9.79;22.56;102894.06;1681738;83;21032;-68
2022/03/18 09:58:48;;;;;;;16.85;6.15;;;;;;;9.75;23.07;102902.78;1695181;83;21139;-70
2022/03/18 10:01:20;;;;;;;11.35;4.95;;;;;;;9.96;22.78;102901.24;1674163;83;21098;-69
2022/03/18 10:03:50;;;;;;;18.98;7.12;;;;;;;10.25;22.16;102896.25;1714175;83;21068;-68
2022/03/18 10:06:23;;;;;;;13.32;5.17;;;;;;;10.17;21.88;102894.87;1691866;84;21048;-68
2022/03/18 10:08:55;;;;;;;14.63;5.60;;;;;;;9.73;22.28;102894.02;1666371;84;21063;-67
2022/03/18 10:11:26;;;;;;;19.02;5.78;;;;;;;9.61;22.91;102893.42;1691350;84;21573;-68
2022/03/18 10:14:10;;;;;;;15.15;6.42;;;;;;;9.93;22.32;102893.33;1691101;84;21573;-68
2022/03/18 10:16:48;;;;;;;8.85;4.20;;;;;;;10.13;22.10;102893.08;1691070;84;21096;-68
2022/03/18 10:19:23;;;;;;;19.48;6.80;;;;;;;9.84;21.91;102892.35;1687215;84;21658;-69
2022/03/18 10:22:00;;;;;;;12.03;5.12;;;;;;;9.55;22.47;102891.19;1687142;85;21045;-68
2022/03/18 10:24:37;;;;;;;12.53;5.87;;;;;;;9.37;22.81;102887.46;1687039;85;21119;-68
2022/03/18 10:27:18;;;;;;;87.50;39.25;;;;;;;9.58;23.09;102891.20;1686595;85;21864;-69
2022/03/18 10:29:49;;;;;;;37.30;10.90;;;;;;;9.74;22.00;102893.58;1691236;84;21048;-68
2022/03/18 10:32:21;;;;;;;15.08;5.53;;;;;;;9.58;22.16;102888.58;1691167;84;21080;-69
2022/03/18 10:37:49;;;;;;;7.65;4.00;;;;;;;9.57;22.56;102882.44;1689610;84;21044;-69
2022/03/18 10:40:34;;;;;;;9.90;4.42;;;;;;;9.44;22.53;102889.30;1691305;84;21553;-68
2022/03/18 10:43:05;;;;;;;13.13;4.85;;;;;;;9.24;23.16;102878.52;1691160;84;21044;-68
2022/03/18 10:45:32;;;;;;;11.97;5.25;;;;;;;8.88;23.01;102893.81;1691147;84;21048;-68
2022/03/18 10:48:13;;;;;;;5.92;4.00;;;;;;;8.45;23.79;102901.06;1691301;84;21485;-69
2022/03/18 10:50:45;;;;;;;15.15;6.40;;;;;;;8.51;24.14;102897.20;1691206;84;21044;-68
2022/03/18 10:53:13;;;;;;;9.30;4.20;;;;;;;8.81;23.84;102889.80;1691306;84;21213;-69
2022/03/18 10:55:44;;;;;;;11.20;5.00;;;;;;;9.00;22.89;102891.37;1691149;84;21037;-69
2022/03/18 10:58:19;;;;;;;9.58;4.12;;;;;;;8.85;22.90;102886.77;1691068;84;21036;-69
2022/03/18 11:00:52;;;;;;;7.35;3.77;;;;;;;8.45;22.94;102885.31;1691146;84;21043;-68
2022/03/18 11:03:19;;;;;;;41.50;24.57;;;;;;;8.27;23.54;102889.80;1691400;84;21159;-68
2022/03/18 11:05:51;;;;;;;8.08;3.65;;;;;;;8.28;23.10;102890.23;1688572;84;21045;-67
2022/03/18 11:08:22;;;;;;;17.23;6.08;;;;;;;8.54;23.14;102888.08;1691501;84;21611;-67
2022/03/18 11:14:02;;;;;;;10.68;4.35;;;;;;;8.42;23.52;102884.83;1647079;86;21353;-69
2022/03/18 11:16:38;;;;;;;7.95;3.90;;;;;;;8.43;23.20;102889.65;1683801;84;21025;-69
2022/03/18 11:19:10;;;;;;;8.25;4.08;;;;;;;8.59;23.30;102881.14;1681986;84;21073;-68
2022/03/18 11:21:39;;;;;;;9.43;4.57;;;;;;;8.94;22.46;102875.07;1678582;85;21041;-69
2022/03/18 11:24:12;;;;;;;11.25;5.12;;;;;;;9.12;22.24;102874.88;1678566;85;21484;-68
2022/03/18 11:26:48;;;;;;;11.55;5.60;;;;;;;9.01;22.49;102878.23;1678548;85;21025;-69
2022/03/18 11:29:23;;;;;;;7.05;4.35;;;;;;;8.69;22.36;102872.96;1680025;85;21014;-68
2022/03/18 11:32:20;;;;;;;8.15;3.83;;;;;;;8.42;22.64;102866.45;1678467;85;21853;-68
2022/03/18 11:34:58;;;;;;;8.85;5.12;;;;;;;8.25;22.77;102866.56;1678379;85;21555;-69
2022/03/18 11:37:29;;;;;;;7.80;4.75;;;;;;;7.88;22.97;102872.06;1678689;85;21045;-68
2022/03/18 11:40:30;;;;;;;50.03;21.65;;;;;;;7.39;23.63;102867.64;1678147;85;21042;-70
2022/03/18 11:42:55;;;;;;;29.15;13.08;;;;;;;7.12;23.99;102861.84;1678323;85;21057;-69
2022/03/18 11:45:42;;;;;;;10.30;5.15;;;;;;;7.01;24.38;102863.35;1657650;85;21549;-69
2022/03/18 11:48:37;;;;;;;10.35;4.58;;;;;;;7.08;24.38;102861.75;1677208;85;21073;-68
2022/03/18 11:51:42;;;;;;;11.12;4.83;;;;;;;6.82;24.56;102864.70;1648705;85;21057;-69
2022/03/18 11:54:16;;;;;;;8.40;4.62;;;;;;;6.73;24.68;102854.02;1657584;85;21061;-67
2022/03/18 11:56:53;;;;;;;11.20;4.97;;;;;;;6.60;24.84;102857.20;1678855;85;21525;-68
2022/03/18 11:59:39;;;;;;;8.30;4.42;;;;;;;6.40;25.24;102852.39;1678394;85;21638;-69
2022/03/18 12:02:09;;;;;;;11.43;5.45;;;;;;;6.28;25.43;102863.45;1678640;85;21105;-68